FDX1621 KEWR-KIND
Flight info
| Callsign | FDX1621 |
|---|---|
| Flight time | 1h 40m |
| Altitude | 30000 |
| Route | ZIMMZ Q42 HIDON RINTE SNKPT2 |
| Aircraft | B77L/H-SDE1E2E3FGHIJ2J3J4J5M1RWXY/LB1D1 |
Departure
| Time | 2026-05-07 05:06 |
|---|---|
| Airport | Newark Liberty International Airport (KEWR) |
Arrival
| Time | 2026-05-07 06:46 |
|---|---|
| Airport | Indianapolis International Airport (KIND) |
| Time | Latitude | Longitude | Altitude | Speed | Heading |
|---|---|---|---|---|---|
| 2026-05-07 04:32 | 40.67715 | -74.18465 | 27 ft | 0 kts | 205° |
| 2026-05-07 04:57 | 40.67716 | -74.18465 | 27 ft | 1 kts | 205° |
| 2026-05-07 04:57 | 40.67729 | -74.18457 | 21 ft | 3 kts | 206° |
| 2026-05-07 04:57 | 40.67746 | -74.18446 | 27 ft | 2 kts | 206° |
| 2026-05-07 04:57 | 40.67761 | -74.18437 | 26 ft | 3 kts | 188° |
| 2026-05-07 04:58 | 40.67777 | -74.18439 | 25 ft | 3 kts | 138° |
| 2026-05-07 04:58 | 40.67788 | -74.18459 | 26 ft | 3 kts | 114° |
| 2026-05-07 04:58 | 40.67794 | -74.18475 | 25 ft | 1 kts | 116° |
| 2026-05-07 04:58 | 40.67795 | -74.18480 | 25 ft | 0 kts | 116° |
| 2026-05-07 05:02 | 40.67795 | -74.18479 | 27 ft | 0 kts | 116° |
| 2026-05-07 05:02 | 40.67786 | -74.18454 | 27 ft | 7 kts | 116° |
| 2026-05-07 05:02 | 40.67766 | -74.18382 | 27 ft | 9 kts | 107° |
| 2026-05-07 05:02 | 40.67743 | -74.18308 | 27 ft | 9 kts | 116° |
| 2026-05-07 05:03 | 40.67714 | -74.18229 | 27 ft | 10 kts | 116° |
| 2026-05-07 05:03 | 40.67681 | -74.18153 | 27 ft | 10 kts | 130° |
| 2026-05-07 05:03 | 40.67632 | -74.18093 | 27 ft | 10 kts | 134° |
| 2026-05-07 05:03 | 40.67588 | -74.18027 | 27 ft | 10 kts | 128° |
| 2026-05-07 05:04 | 40.67560 | -74.17950 | 27 ft | 10 kts | 88° |
| 2026-05-07 05:04 | 40.67591 | -74.17911 | 26 ft | 5 kts | 24° |
| 2026-05-07 05:04 | 40.67610 | -74.17900 | 27 ft | 0 kts | 25° |
| 2026-05-07 05:05 | 40.67653 | -74.17873 | 26 ft | 32 kts | 25° |
| 2026-05-07 05:05 | 40.68085 | -74.17599 | 30 ft | 105 kts | 25° |
| 2026-05-07 05:05 | 40.68919 | -74.17070 | 26 ft | 158 kts | 26° |
| 2026-05-07 05:05 | 40.70015 | -74.16357 | 216 ft | 182 kts | 22° |
| 2026-05-07 05:06 | 40.71143 | -74.15620 | 802 ft | 181 kts | 30° |
| 2026-05-07 05:06 | 40.72104 | -74.14508 | 1366 ft | 184 kts | 37° |
| 2026-05-07 05:06 | 40.73060 | -74.13345 | 1914 ft | 192 kts | 38° |
| 2026-05-07 05:06 | 40.74089 | -74.12072 | 2163 ft | 219 kts | 39° |
| 2026-05-07 05:07 | 40.75280 | -74.10629 | 2439 ft | 241 kts | 35° |
| 2026-05-07 05:07 | 40.76846 | -74.09760 | 2706 ft | 250 kts | 356° |
| 2026-05-07 05:07 | 40.78498 | -74.10381 | 3342 ft | 250 kts | 320° |
| 2026-05-07 05:07 | 40.79484 | -74.12181 | 4181 ft | 241 kts | 282° |
| 2026-05-07 05:08 | 40.79722 | -74.14291 | 5049 ft | 235 kts | 272° |
| 2026-05-07 05:08 | 40.79848 | -74.16446 | 5985 ft | 231 kts | 270° |
| 2026-05-07 05:08 | 40.79932 | -74.18555 | 6901 ft | 230 kts | 268° |
| 2026-05-07 05:08 | 40.79973 | -74.20651 | 7682 ft | 232 kts | 267° |
| 2026-05-07 05:09 | 40.79990 | -74.22798 | 8466 ft | 235 kts | 266° |
| 2026-05-07 05:09 | 40.80001 | -74.24958 | 9275 ft | 235 kts | 266° |
| 2026-05-07 05:09 | 40.80010 | -74.27135 | 10039 ft | 238 kts | 266° |
| 2026-05-07 05:09 | 40.80023 | -74.29371 | 10555 ft | 253 kts | 266° |
| 2026-05-07 05:10 | 40.80031 | -74.31783 | 10725 ft | 279 kts | 266° |
| 2026-05-07 05:10 | 40.80045 | -74.34458 | 10921 ft | 305 kts | 266° |
| 2026-05-07 05:10 | 40.80053 | -74.37346 | 11454 ft | 319 kts | 266° |
| 2026-05-07 05:10 | 40.80069 | -74.40312 | 12273 ft | 326 kts | 267° |
| 2026-05-07 05:11 | 40.80089 | -74.43292 | 13183 ft | 331 kts | 267° |
| 2026-05-07 05:11 | 40.80111 | -74.46361 | 14073 ft | 335 kts | 267° |
| 2026-05-07 05:11 | 40.80131 | -74.49455 | 14912 ft | 339 kts | 267° |
| 2026-05-07 05:11 | 40.80149 | -74.52589 | 15744 ft | 343 kts | 267° |
| 2026-05-07 05:12 | 40.80166 | -74.55757 | 16540 ft | 347 kts | 267° |
| 2026-05-07 05:12 | 40.80182 | -74.58924 | 17317 ft | 352 kts | 267° |
| 2026-05-07 05:12 | 40.80197 | -74.62188 | 18104 ft | 356 kts | 267° |
| 2026-05-07 05:12 | 40.80211 | -74.65476 | 18852 ft | 358 kts | 267° |
| 2026-05-07 05:13 | 40.80224 | -74.68724 | 19685 ft | 357 kts | 267° |
| 2026-05-07 05:13 | 40.80236 | -74.71995 | 20588 ft | 355 kts | 267° |
| 2026-05-07 05:13 | 40.80252 | -74.75257 | 21398 ft | 355 kts | 267° |
| 2026-05-07 05:13 | 40.80265 | -74.78531 | 22136 ft | 356 kts | 267° |
| 2026-05-07 05:14 | 40.80264 | -74.81811 | 22861 ft | 358 kts | 267° |
| 2026-05-07 05:14 | 40.80269 | -74.85059 | 23604 ft | 358 kts | 267° |
| 2026-05-07 05:14 | 40.80276 | -74.88359 | 24244 ft | 359 kts | 267° |
| 2026-05-07 05:14 | 40.80282 | -74.91667 | 24824 ft | 361 kts | 267° |
| 2026-05-07 05:15 | 40.80288 | -74.94988 | 25428 ft | 363 kts | 267° |
| 2026-05-07 05:15 | 40.80293 | -74.98336 | 26012 ft | 364 kts | 267° |
| 2026-05-07 05:15 | 40.80297 | -75.01640 | 26586 ft | 365 kts | 267° |
| 2026-05-07 05:15 | 40.80299 | -75.05006 | 27163 ft | 367 kts | 267° |
| 2026-05-07 05:16 | 40.80299 | -75.08383 | 27786 ft | 368 kts | 267° |
| 2026-05-07 05:16 | 40.80186 | -75.11763 | 28269 ft | 369 kts | 263° |
| 2026-05-07 05:16 | 40.79899 | -75.15104 | 28672 ft | 373 kts | 261° |
| 2026-05-07 05:16 | 40.79427 | -75.18490 | 29130 ft | 375 kts | 259° |
| 2026-05-07 05:17 | 40.78922 | -75.21874 | 29617 ft | 377 kts | 259° |
| 2026-05-07 05:17 | 40.78416 | -75.25293 | 29943 ft | 380 kts | 259° |
| 2026-05-07 05:17 | 40.77394 | -75.32230 | 30230 ft | 391 kts | 258° |
| 2026-05-07 05:18 | 40.76723 | -75.35706 | 30593 ft | 391 kts | 255° |
| 2026-05-07 05:18 | 40.75869 | -75.39104 | 31018 ft | 389 kts | 253° |
| 2026-05-07 05:18 | 40.74914 | -75.42457 | 30901 ft | 389 kts | 251° |
| 2026-05-07 05:18 | 40.73804 | -75.45650 | 30884 ft | 386 kts | 248° |
| 2026-05-07 05:19 | 40.71440 | -75.51963 | 30853 ft | 382 kts | 248° |
| 2026-05-07 05:19 | 40.70261 | -75.55107 | 30720 ft | 382 kts | 248° |
| 2026-05-07 05:19 | 40.69100 | -75.58209 | 30590 ft | 383 kts | 248° |
| 2026-05-07 05:20 | 40.67921 | -75.61364 | 30481 ft | 383 kts | 248° |
| 2026-05-07 05:20 | 40.66740 | -75.64525 | 30415 ft | 383 kts | 248° |
| 2026-05-07 05:20 | 40.65565 | -75.67672 | 30171 ft | 385 kts | 248° |
| 2026-05-07 05:20 | 40.64382 | -75.70837 | 30052 ft | 383 kts | 247° |
| 2026-05-07 05:21 | 40.60862 | -75.80234 | 29959 ft | 382 kts | 247° |
| 2026-05-07 05:22 | 40.58499 | -75.86482 | 29925 ft | 379 kts | 247° |
| 2026-05-07 05:22 | 40.56148 | -75.92642 | 29910 ft | 378 kts | 247° |
| 2026-05-07 05:23 | 40.53784 | -75.98828 | 29930 ft | 378 kts | 247° |
| 2026-05-07 05:23 | 40.51435 | -76.04970 | 29934 ft | 378 kts | 247° |
| 2026-05-07 05:24 | 40.49060 | -76.11168 | 29909 ft | 380 kts | 246° |
| 2026-05-07 05:24 | 40.46665 | -76.17405 | 29937 ft | 383 kts | 247° |
| 2026-05-07 05:25 | 40.44268 | -76.23633 | 29927 ft | 385 kts | 247° |
| 2026-05-07 05:25 | 40.41848 | -76.29907 | 29918 ft | 384 kts | 246° |
| 2026-05-07 05:26 | 40.39429 | -76.36167 | 29924 ft | 383 kts | 246° |
| 2026-05-07 05:26 | 40.37032 | -76.42357 | 29926 ft | 382 kts | 246° |
| 2026-05-07 05:27 | 40.34932 | -76.48729 | 29934 ft | 379 kts | 252° |
| 2026-05-07 05:27 | 40.33398 | -76.55332 | 29922 ft | 377 kts | 257° |
| 2026-05-07 05:28 | 40.32369 | -76.62030 | 29924 ft | 377 kts | 258° |
| 2026-05-07 05:28 | 40.31371 | -76.68789 | 29928 ft | 377 kts | 258° |
| 2026-05-07 05:29 | 40.30361 | -76.75558 | 29942 ft | 378 kts | 258° |
| 2026-05-07 05:29 | 40.29345 | -76.82280 | 29933 ft | 378 kts | 258° |
| 2026-05-07 05:30 | 40.28316 | -76.89049 | 29962 ft | 378 kts | 258° |
| 2026-05-07 05:30 | 40.27287 | -76.95791 | 29942 ft | 376 kts | 258° |
| 2026-05-07 05:31 | 40.26266 | -77.02437 | 29944 ft | 373 kts | 258° |
| 2026-05-07 05:31 | 40.25240 | -77.09099 | 29939 ft | 372 kts | 258° |
| 2026-05-07 05:32 | 40.24212 | -77.15745 | 29943 ft | 372 kts | 258° |
| 2026-05-07 05:32 | 40.23186 | -77.22356 | 29944 ft | 373 kts | 258° |
| 2026-05-07 05:33 | 40.22147 | -77.29021 | 29955 ft | 373 kts | 258° |
| 2026-05-07 05:33 | 40.21106 | -77.35671 | 29889 ft | 372 kts | 258° |
| 2026-05-07 05:34 | 40.20067 | -77.42281 | 29947 ft | 374 kts | 258° |
| 2026-05-07 05:34 | 40.19008 | -77.48992 | 29961 ft | 380 kts | 258° |
| 2026-05-07 05:35 | 40.17924 | -77.55836 | 29966 ft | 391 kts | 258° |
| 2026-05-07 05:35 | 40.16814 | -77.62821 | 29962 ft | 390 kts | 258° |
| 2026-05-07 05:36 | 40.15710 | -77.69737 | 29960 ft | 387 kts | 258° |
| 2026-05-07 05:36 | 40.14616 | -77.76568 | 29972 ft | 385 kts | 258° |
| 2026-05-07 05:37 | 40.13771 | -77.83502 | 29979 ft | 386 kts | 263° |
| 2026-05-07 05:37 | 40.13553 | -77.90539 | 29971 ft | 388 kts | 267° |
| 2026-05-07 05:38 | 40.13639 | -77.97572 | 29991 ft | 390 kts | 267° |
| 2026-05-07 05:38 | 40.13731 | -78.04662 | 29986 ft | 390 kts | 267° |
| 2026-05-07 05:39 | 40.13799 | -78.10553 | 29983 ft | 389 kts | 267° |
| 2026-05-07 05:39 | 40.13871 | -78.17637 | 29980 ft | 389 kts | 267° |
| 2026-05-07 05:40 | 40.13937 | -78.24675 | 29986 ft | 389 kts | 267° |
| 2026-05-07 05:40 | 40.13998 | -78.31750 | 29985 ft | 389 kts | 267° |
| 2026-05-07 05:41 | 40.14055 | -78.38785 | 29993 ft | 389 kts | 267° |
| 2026-05-07 05:41 | 40.14108 | -78.45869 | 29983 ft | 389 kts | 267° |
| 2026-05-07 05:42 | 40.14157 | -78.52951 | 29989 ft | 389 kts | 267° |
| 2026-05-07 05:42 | 40.14201 | -78.59989 | 29985 ft | 389 kts | 267° |
| 2026-05-07 05:43 | 40.14241 | -78.67065 | 29985 ft | 389 kts | 267° |
| 2026-05-07 05:43 | 40.14277 | -78.74087 | 29994 ft | 388 kts | 266° |
| 2026-05-07 05:44 | 40.14307 | -78.81137 | 29973 ft | 387 kts | 266° |
| 2026-05-07 05:44 | 40.14333 | -78.88172 | 29976 ft | 387 kts | 266° |
| 2026-05-07 05:45 | 40.14358 | -78.95206 | 29981 ft | 387 kts | 266° |
| 2026-05-07 05:45 | 40.14376 | -79.02191 | 29979 ft | 386 kts | 266° |
| 2026-05-07 05:46 | 40.14391 | -79.09226 | 30000 ft | 386 kts | 266° |
| 2026-05-07 05:46 | 40.14406 | -79.16234 | 30009 ft | 384 kts | 266° |
| 2026-05-07 05:47 | 40.14545 | -79.23162 | 30014 ft | 383 kts | 268° |
| 2026-05-07 05:47 | 40.14729 | -79.30116 | 30013 ft | 382 kts | 268° |
| 2026-05-07 05:48 | 40.14900 | -79.37066 | 30024 ft | 382 kts | 268° |
| 2026-05-07 05:48 | 40.15058 | -79.43970 | 30084 ft | 382 kts | 267° |
| 2026-05-07 05:49 | 40.15207 | -79.50913 | 30025 ft | 380 kts | 267° |
| 2026-05-07 05:49 | 40.15354 | -79.57809 | 30014 ft | 378 kts | 267° |
| 2026-05-07 05:50 | 40.15493 | -79.64618 | 30012 ft | 376 kts | 267° |
| 2026-05-07 05:50 | 40.15628 | -79.71471 | 30000 ft | 376 kts | 267° |
| 2026-05-07 05:51 | 40.15759 | -79.78279 | 30007 ft | 377 kts | 267° |
| 2026-05-07 05:51 | 40.15886 | -79.85145 | 30014 ft | 377 kts | 267° |
| 2026-05-07 05:52 | 40.16010 | -79.91999 | 30012 ft | 376 kts | 267° |
| 2026-05-07 05:52 | 40.16129 | -79.98802 | 30013 ft | 376 kts | 267° |
| 2026-05-07 05:53 | 40.16244 | -80.05635 | 30032 ft | 376 kts | 267° |
| 2026-05-07 05:53 | 40.16356 | -80.12469 | 30041 ft | 375 kts | 267° |
| 2026-05-07 05:54 | 40.16462 | -80.19296 | 30057 ft | 375 kts | 266° |
| 2026-05-07 05:54 | 40.16564 | -80.26069 | 30037 ft | 374 kts | 266° |
| 2026-05-07 05:55 | 40.16664 | -80.32862 | 30037 ft | 373 kts | 266° |
| 2026-05-07 05:55 | 40.16758 | -80.39648 | 30038 ft | 372 kts | 266° |
| 2026-05-07 05:56 | 40.16847 | -80.46384 | 30038 ft | 372 kts | 266° |
| 2026-05-07 05:56 | 40.16935 | -80.53172 | 30036 ft | 372 kts | 266° |
| 2026-05-07 05:57 | 40.17016 | -80.59910 | 30041 ft | 373 kts | 266° |
| 2026-05-07 05:57 | 40.17094 | -80.66694 | 30011 ft | 373 kts | 266° |
| 2026-05-07 05:58 | 40.17170 | -80.73484 | 30012 ft | 372 kts | 266° |
| 2026-05-07 05:58 | 40.17239 | -80.80203 | 30008 ft | 372 kts | 266° |
| 2026-05-07 05:59 | 40.17307 | -80.86973 | 30014 ft | 372 kts | 266° |
| 2026-05-07 05:59 | 40.17371 | -80.93746 | 30032 ft | 372 kts | 266° |
| 2026-05-07 06:00 | 40.17400 | -81.00467 | 30019 ft | 371 kts | 265° |
| 2026-05-07 06:00 | 40.17333 | -81.07213 | 30025 ft | 370 kts | 265° |
| 2026-05-07 06:01 | 40.17259 | -81.13941 | 30032 ft | 369 kts | 265° |
| 2026-05-07 06:01 | 40.17190 | -81.20625 | 30022 ft | 369 kts | 265° |
| 2026-05-07 06:02 | 40.17120 | -81.27346 | 30026 ft | 369 kts | 265° |
| 2026-05-07 06:02 | 40.17047 | -81.34062 | 30038 ft | 369 kts | 265° |
| 2026-05-07 06:03 | 40.16972 | -81.40728 | 30036 ft | 368 kts | 265° |
| 2026-05-07 06:03 | 40.16892 | -81.47423 | 30018 ft | 367 kts | 265° |
| 2026-05-07 06:04 | 40.16809 | -81.54101 | 30016 ft | 367 kts | 265° |
| 2026-05-07 06:04 | 40.16726 | -81.60731 | 29991 ft | 367 kts | 265° |
| 2026-05-07 06:05 | 40.16992 | -81.67468 | 30040 ft | 373 kts | 269° |
| 2026-05-07 06:05 | 40.17400 | -81.74198 | 30036 ft | 373 kts | 269° |
| 2026-05-07 06:06 | 40.17805 | -81.80968 | 30023 ft | 372 kts | 269° |
| 2026-05-07 06:06 | 40.18202 | -81.87702 | 30022 ft | 370 kts | 269° |
| 2026-05-07 06:07 | 40.18590 | -81.94359 | 30029 ft | 368 kts | 269° |
| 2026-05-07 06:07 | 40.18973 | -82.01046 | 30022 ft | 368 kts | 269° |
| 2026-05-07 06:08 | 40.19352 | -82.07723 | 30015 ft | 367 kts | 269° |
| 2026-05-07 06:08 | 40.19726 | -82.14352 | 30021 ft | 367 kts | 269° |
| 2026-05-07 06:09 | 40.20098 | -82.21030 | 30026 ft | 368 kts | 268° |
| 2026-05-07 06:09 | 40.20465 | -82.27716 | 30023 ft | 368 kts | 268° |
| 2026-05-07 06:10 | 40.20829 | -82.34364 | 30019 ft | 368 kts | 268° |
| 2026-05-07 06:10 | 40.21191 | -82.41065 | 30057 ft | 369 kts | 268° |
| 2026-05-07 06:11 | 40.21547 | -82.47726 | 30027 ft | 369 kts | 268° |
| 2026-05-07 06:11 | 40.21900 | -82.54418 | 30020 ft | 368 kts | 268° |
| 2026-05-07 06:12 | 40.22249 | -82.61102 | 30015 ft | 367 kts | 268° |
| 2026-05-07 06:12 | 40.22591 | -82.67728 | 30011 ft | 367 kts | 268° |
| 2026-05-07 06:13 | 40.22932 | -82.74398 | 30020 ft | 367 kts | 268° |
| 2026-05-07 06:13 | 40.23269 | -82.81072 | 30027 ft | 368 kts | 268° |
| 2026-05-07 06:14 | 40.23600 | -82.87709 | 30015 ft | 367 kts | 268° |
| 2026-05-07 06:14 | 40.23930 | -82.94383 | 30014 ft | 366 kts | 268° |
| 2026-05-07 06:15 | 40.24253 | -83.01011 | 30018 ft | 366 kts | 268° |
| 2026-05-07 06:15 | 40.24574 | -83.07666 | 30022 ft | 366 kts | 268° |
| 2026-05-07 06:16 | 40.24891 | -83.14319 | 30023 ft | 366 kts | 268° |
| 2026-05-07 06:16 | 40.25202 | -83.20941 | 30026 ft | 366 kts | 268° |
| 2026-05-07 06:17 | 40.25512 | -83.27599 | 30017 ft | 366 kts | 268° |
| 2026-05-07 06:17 | 40.25815 | -83.34210 | 30016 ft | 365 kts | 268° |
| 2026-05-07 06:18 | 40.26117 | -83.40855 | 30015 ft | 365 kts | 268° |
| 2026-05-07 06:18 | 40.26412 | -83.47454 | 30032 ft | 365 kts | 268° |
| 2026-05-07 06:19 | 40.26705 | -83.54099 | 30046 ft | 365 kts | 268° |
| 2026-05-07 06:19 | 40.26995 | -83.60754 | 30025 ft | 365 kts | 268° |
| 2026-05-07 06:20 | 40.27279 | -83.67368 | 30039 ft | 366 kts | 268° |
| 2026-05-07 06:20 | 40.27562 | -83.74028 | 30043 ft | 366 kts | 268° |
| 2026-05-07 06:21 | 40.27841 | -83.80688 | 30031 ft | 366 kts | 267° |
| 2026-05-07 06:21 | 40.28114 | -83.87300 | 30027 ft | 365 kts | 267° |
| 2026-05-07 06:22 | 40.28386 | -83.93963 | 30041 ft | 366 kts | 268° |
| 2026-05-07 06:22 | 40.28783 | -84.03913 | 30032 ft | 366 kts | 267° |
| 2026-05-07 06:23 | 40.28651 | -84.10542 | 30035 ft | 363 kts | 263° |
| 2026-05-07 06:23 | 40.28396 | -84.17156 | 30030 ft | 363 kts | 263° |
| 2026-05-07 06:24 | 40.28153 | -84.23731 | 30033 ft | 363 kts | 263° |
| 2026-05-07 06:24 | 40.27919 | -84.30351 | 30068 ft | 364 kts | 263° |
| 2026-05-07 06:25 | 40.27684 | -84.37001 | 30034 ft | 365 kts | 263° |
| 2026-05-07 06:25 | 40.27447 | -84.43620 | 30038 ft | 366 kts | 263° |
| 2026-05-07 06:26 | 40.27205 | -84.50293 | 30034 ft | 366 kts | 263° |
| 2026-05-07 06:26 | 40.26961 | -84.56918 | 30037 ft | 366 kts | 263° |
| 2026-05-07 06:27 | 40.26713 | -84.63578 | 30038 ft | 366 kts | 263° |
| 2026-05-07 06:27 | 40.26459 | -84.70244 | 30044 ft | 367 kts | 263° |
| 2026-05-07 06:28 | 40.26210 | -84.76902 | 30038 ft | 368 kts | 263° |
| 2026-05-07 06:28 | 40.25963 | -84.83572 | 29722 ft | 362 kts | 263° |
| 2026-05-07 06:29 | 40.25838 | -84.86859 | 28903 ft | 358 kts | 263° |
| 2026-05-07 06:29 | 40.25751 | -84.90107 | 28150 ft | 354 kts | 264° |
| 2026-05-07 06:29 | 40.25649 | -84.93255 | 27468 ft | 349 kts | 264° |
| 2026-05-07 06:29 | 40.25511 | -84.96422 | 26703 ft | 347 kts | 263° |
| 2026-05-07 06:30 | 40.25369 | -84.99589 | 25853 ft | 349 kts | 264° |
| 2026-05-07 06:30 | 40.25222 | -85.02784 | 24992 ft | 352 kts | 264° |
| 2026-05-07 06:30 | 40.25124 | -85.05967 | 24158 ft | 356 kts | 265° |
| 2026-05-07 06:30 | 40.24956 | -85.09215 | 23254 ft | 360 kts | 264° |
| 2026-05-07 06:31 | 40.24815 | -85.12499 | 22497 ft | 360 kts | 265° |
| 2026-05-07 06:31 | 40.24694 | -85.15759 | 21933 ft | 355 kts | 265° |
| 2026-05-07 06:31 | 40.24575 | -85.18928 | 21380 ft | 351 kts | 265° |
| 2026-05-07 06:31 | 40.24448 | -85.22112 | 20765 ft | 349 kts | 265° |
| 2026-05-07 06:32 | 40.24317 | -85.25286 | 20145 ft | 348 kts | 265° |
| 2026-05-07 06:32 | 40.24186 | -85.28445 | 19554 ft | 346 kts | 266° |
| 2026-05-07 06:32 | 40.24056 | -85.31549 | 19006 ft | 344 kts | 266° |
| 2026-05-07 06:32 | 40.23924 | -85.34677 | 18456 ft | 343 kts | 266° |
| 2026-05-07 06:33 | 40.23763 | -85.37770 | 17800 ft | 338 kts | 262° |
| 2026-05-07 06:33 | 40.23150 | -85.40747 | 17035 ft | 341 kts | 249° |
| 2026-05-07 06:33 | 40.22061 | -85.43469 | 16430 ft | 341 kts | 243° |
| 2026-05-07 06:33 | 40.20873 | -85.46154 | 15826 ft | 340 kts | 243° |
| 2026-05-07 06:34 | 40.19693 | -85.48831 | 15223 ft | 338 kts | 244° |
| 2026-05-07 06:34 | 40.18527 | -85.51496 | 14598 ft | 331 kts | 244° |
| 2026-05-07 06:34 | 40.17413 | -85.54056 | 13583 ft | 327 kts | 244° |
| 2026-05-07 06:34 | 40.16294 | -85.56647 | 12418 ft | 327 kts | 244° |
| 2026-05-07 06:35 | 40.15191 | -85.59197 | 11851 ft | 314 kts | 244° |
| 2026-05-07 06:35 | 40.14130 | -85.61640 | 11648 ft | 303 kts | 244° |
| 2026-05-07 06:35 | 40.13119 | -85.63988 | 11531 ft | 289 kts | 244° |
| 2026-05-07 06:35 | 40.12173 | -85.66202 | 11454 ft | 277 kts | 245° |
| 2026-05-07 06:36 | 40.11255 | -85.68352 | 11338 ft | 264 kts | 245° |
| 2026-05-07 06:36 | 40.10374 | -85.70418 | 11149 ft | 255 kts | 245° |
| 2026-05-07 06:36 | 40.09515 | -85.72431 | 10845 ft | 251 kts | 245° |
| 2026-05-07 06:36 | 40.08677 | -85.74397 | 10446 ft | 251 kts | 245° |
| 2026-05-07 06:37 | 40.07820 | -85.76401 | 10009 ft | 253 kts | 244° |
| 2026-05-07 06:37 | 40.06959 | -85.78409 | 9545 ft | 254 kts | 244° |
| 2026-05-07 06:37 | 40.06099 | -85.80411 | 9131 ft | 252 kts | 244° |
| 2026-05-07 06:37 | 40.05222 | -85.82348 | 8839 ft | 249 kts | 242° |
| 2026-05-07 06:38 | 40.04292 | -85.84261 | 8588 ft | 249 kts | 241° |
| 2026-05-07 06:38 | 40.03364 | -85.86163 | 8341 ft | 249 kts | 241° |
| 2026-05-07 06:38 | 40.02344 | -85.88007 | 8080 ft | 252 kts | 233° |
| 2026-05-07 06:38 | 40.01131 | -85.89693 | 7841 ft | 256 kts | 230° |
| 2026-05-07 06:39 | 39.99891 | -85.91335 | 7587 ft | 257 kts | 230° |
| 2026-05-07 06:39 | 39.98636 | -85.92998 | 7328 ft | 258 kts | 230° |
| 2026-05-07 06:39 | 39.97380 | -85.94677 | 7068 ft | 258 kts | 230° |
| 2026-05-07 06:39 | 39.96124 | -85.96366 | 6808 ft | 258 kts | 230° |
| 2026-05-07 06:40 | 39.94887 | -85.98039 | 6536 ft | 253 kts | 230° |
| 2026-05-07 06:40 | 39.93692 | -85.99658 | 6273 ft | 248 kts | 230° |
| 2026-05-07 06:40 | 39.92493 | -86.01287 | 6028 ft | 248 kts | 230° |
| 2026-05-07 06:40 | 39.91302 | -86.02908 | 5771 ft | 247 kts | 230° |
| 2026-05-07 06:41 | 39.90128 | -86.04505 | 5576 ft | 241 kts | 230° |
| 2026-05-07 06:41 | 39.88979 | -86.06064 | 5285 ft | 234 kts | 230° |
| 2026-05-07 06:41 | 39.87882 | -86.07552 | 5041 ft | 227 kts | 229° |
| 2026-05-07 06:41 | 39.86779 | -86.08987 | 4745 ft | 222 kts | 228° |
| 2026-05-07 06:42 | 39.85692 | -86.10377 | 4452 ft | 216 kts | 229° |
| 2026-05-07 06:42 | 39.84639 | -86.11727 | 4174 ft | 210 kts | 229° |
| 2026-05-07 06:42 | 39.83629 | -86.13020 | 4034 ft | 195 kts | 229° |
| 2026-05-07 06:42 | 39.82695 | -86.14219 | 3835 ft | 186 kts | 230° |
| 2026-05-07 06:43 | 39.81773 | -86.15406 | 3594 ft | 189 kts | 230° |
| 2026-05-07 06:43 | 39.81151 | -86.16205 | 3419 ft | 189 kts | 230° |
| 2026-05-07 06:43 | 39.80224 | -86.17393 | 3156 ft | 185 kts | 230° |
| 2026-05-07 06:43 | 39.79310 | -86.18564 | 2891 ft | 184 kts | 230° |
| 2026-05-07 06:44 | 39.78429 | -86.19692 | 2620 ft | 170 kts | 230° |
| 2026-05-07 06:44 | 39.77635 | -86.20707 | 2415 ft | 157 kts | 231° |
| 2026-05-07 06:44 | 39.76871 | -86.21690 | 2229 ft | 153 kts | 231° |
| 2026-05-07 06:44 | 39.76112 | -86.22662 | 2042 ft | 155 kts | 231° |
| 2026-05-07 06:45 | 39.75321 | -86.23677 | 1803 ft | 162 kts | 231° |
| 2026-05-07 06:45 | 39.74523 | -86.24702 | 1584 ft | 160 kts | 229° |
| 2026-05-07 06:45 | 39.73736 | -86.25711 | 1352 ft | 158 kts | 227° |
| 2026-05-07 06:45 | 39.72971 | -86.26691 | 1105 ft | 155 kts | 226° |
| 2026-05-07 06:46 | 39.72202 | -86.27670 | 890 ft | 154 kts | 226° |
| 2026-05-07 06:46 | 39.71455 | -86.28622 | 789 ft | 141 kts | 223° |
| 2026-05-07 06:46 | 39.70884 | -86.29345 | 783 ft | 87 kts | 224° |
| 2026-05-07 06:46 | 39.70583 | -86.29726 | 790 ft | 43 kts | 224° |
| 2026-05-07 06:47 | 39.70407 | -86.29952 | 788 ft | 22 kts | 225° |
| 2026-05-07 06:47 | 39.70346 | -86.29983 | 788 ft | 9 kts | 154° |
| 2026-05-07 06:47 | 39.70293 | -86.29915 | 790 ft | 11 kts | 133° |
| 2026-05-07 06:47 | 39.70272 | -86.29828 | 792 ft | 11 kts | 63° |
| 2026-05-07 06:48 | 39.70326 | -86.29756 | 792 ft | 11 kts | 44° |
| 2026-05-07 06:48 | 39.70381 | -86.29687 | 792 ft | 11 kts | 44° |
| 2026-05-07 06:48 | 39.70440 | -86.29612 | 792 ft | 13 kts | 44° |
| 2026-05-07 06:48 | 39.70508 | -86.29531 | 792 ft | 13 kts | 41° |
| 2026-05-07 06:49 | 39.70502 | -86.29423 | 794 ft | 13 kts | 116° |
| 2026-05-07 06:49 | 39.70539 | -86.29321 | 794 ft | 14 kts | 45° |
| 2026-05-07 06:49 | 39.70612 | -86.29228 | 792 ft | 15 kts | 44° |
| 2026-05-07 06:49 | 39.70657 | -86.29208 | 790 ft | 6 kts | 336° |
| 2026-05-07 06:50 | 39.70688 | -86.29244 | 789 ft | 3 kts | 315° |
| 2026-05-07 06:50 | 39.70689 | -86.29245 | 789 ft | 0 kts | 316° |